Accueil
METAR-TAF:

METAR-TAF

Aéroports :

Keene, New Hampshire, États-Unis

latitude: 42-54N, longitude: 072-16W, altitude: 149 m

Observation

Le bulletin a été fait il y a 19 minutes, à 12:56 UTC
Vent 4 kt de nord
Température 9°C
Humidité 66%
Pression 1023 hPa
Visibilité: 16.1 km
Quelques nuages à une hauteur de 8000 ft

METAR: KEEN 011256Z AUTO 36004KT 10SM FEW080 09/03 A3021 RMK AO2 SLP236 T00890028 $

Heure: 09:15 (13:15 UTC)


TAF: absent

Observations et prévisions météorologiques de plus de 4000 aéroports (messages METAR et TAF).

Les stations disponibles sont représentées par des disques jaunes et rouges sur la carte.

Passer la souris dessus pour voir le nom de la station.

Cliquer dessus pour voir les observations et prévisions météorologiques.

Pour changer de carte: cliquez sur les boutons verts avec une croix noire pour zoomer, sur le bouton vert avec un tiret pour effectuer un zoom arrière, ou sur les flèches vertes pour les cartes adjacentes.


METAR-TAF: